createdAt,value
2023-03-21T00:00:43.883Z,14.63
2023-03-21T00:03:11.240Z,21.57
2023-03-21T00:05:42.359Z,21.17
2023-03-21T00:08:09.595Z,18.80
2023-03-21T00:10:43.249Z,17.20
2023-03-21T00:13:15.477Z,19.30
2023-03-21T00:16:05.780Z,20.50
2023-03-21T00:18:42.468Z,20.97
2023-03-21T00:23:59.949Z,18.67
2023-03-21T00:26:27.440Z,20.10
2023-03-21T00:28:54.545Z,17.93
2023-03-21T00:31:21.744Z,18.23
2023-03-21T00:33:48.783Z,17.30
2023-03-21T00:36:16.640Z,17.77
2023-03-21T00:38:43.725Z,19.23
2023-03-21T00:41:23.253Z,21.37
2023-03-21T00:43:55.435Z,21.97
2023-03-21T00:46:25.115Z,18.33
2023-03-21T00:48:52.430Z,23.10
2023-03-21T00:51:27.121Z,19.83
2023-03-21T00:53:58.574Z,20.47
2023-03-21T00:56:25.700Z,20.80
2023-03-21T00:58:52.742Z,14.90
2023-03-21T01:01:20.124Z,21.50
2023-03-21T01:03:51.050Z,24.17
2023-03-21T01:06:19.780Z,20.60
2023-03-21T01:08:52.774Z,26.17
2023-03-21T01:11:22.201Z,20.03
2023-03-21T01:14:07.299Z,24.80
2023-03-21T01:16:37.239Z,26.00
2023-03-21T01:19:07.049Z,21.87
2023-03-21T01:21:34.538Z,26.60
2023-03-21T01:24:01.754Z,25.87
2023-03-21T01:26:29.014Z,24.13
2023-03-21T01:28:56.081Z,25.63
2023-03-21T01:31:23.240Z,25.33
2023-03-21T01:33:50.333Z,28.30
2023-03-21T01:36:23.904Z,25.07
2023-03-21T01:38:51.924Z,25.03
2023-03-21T01:41:42.926Z,28.17
2023-03-21T01:44:20.067Z,22.07
2023-03-21T01:47:07.424Z,20.93
2023-03-21T01:49:38.580Z,19.93
2023-03-21T01:52:13.111Z,27.53
2023-03-21T01:54:43.881Z,23.07
2023-03-21T01:57:20.973Z,25.47
2023-03-21T01:59:50.261Z,22.07
2023-03-21T02:02:20.687Z,24.83
2023-03-21T02:04:51.130Z,25.00
2023-03-21T02:07:25.590Z,23.70
2023-03-21T02:09:53.042Z,26.97
2023-03-21T02:12:20.257Z,25.83
2023-03-21T02:14:48.724Z,24.53
2023-03-21T02:17:34.794Z,31.13
2023-03-21T02:20:02.482Z,24.43
2023-03-21T02:23:04.844Z,28.93
2023-03-21T02:25:50.047Z,27.63
2023-03-21T02:28:17.361Z,27.93
2023-03-21T02:30:59.681Z,32.40
2023-03-21T02:33:26.762Z,27.20
2023-03-21T02:36:13.839Z,31.30
2023-03-21T02:38:43.802Z,22.57
2023-03-21T02:41:25.441Z,28.77
2023-03-21T02:44:03.584Z,24.73
2023-03-21T02:47:05.946Z,23.27
2023-03-21T02:49:38.173Z,27.67
2023-03-21T02:52:15.544Z,30.63
2023-03-21T02:54:48.853Z,31.47
2023-03-21T02:57:18.409Z,26.63
2023-03-21T02:59:54.381Z,24.27
2023-03-21T03:02:26.962Z,17.03
2023-03-21T03:04:54.461Z,21.60
2023-03-21T03:07:41.391Z,21.60
2023-03-21T03:10:30.100Z,21.67
2023-03-21T03:13:16.321Z,20.00
2023-03-21T03:15:48.008Z,21.77
2023-03-21T03:18:21.508Z,23.13
2023-03-21T03:20:57.718Z,18.70
2023-03-21T03:23:36.709Z,23.87
2023-03-21T03:26:06.398Z,23.03
2023-03-21T03:28:37.617Z,26.00
2023-03-21T03:31:09.675Z,24.47
2023-03-21T03:33:38.847Z,23.77
2023-03-21T03:36:07.583Z,30.47
2023-03-21T03:38:35.756Z,30.37
2023-03-21T03:41:05.327Z,27.40
2023-03-21T03:43:40.109Z,30.83
2023-03-21T03:46:12.269Z,26.77
2023-03-21T03:48:49.521Z,26.80
2023-03-21T03:51:21.741Z,28.03
2023-03-21T03:53:57.751Z,32.03
2023-03-21T03:56:25.799Z,32.53
2023-03-21T03:58:52.872Z,31.10
2023-03-21T04:01:19.979Z,31.17
2023-03-21T04:03:53.041Z,24.63
2023-03-21T04:06:28.746Z,31.63
2023-03-21T04:08:57.004Z,26.07
2023-03-21T04:11:24.665Z,33.30
2023-03-21T04:13:51.970Z,33.27
2023-03-21T04:16:19.260Z,26.60
2023-03-21T04:18:47.902Z,33.23
2023-03-21T04:21:15.184Z,22.93
2023-03-21T04:23:42.385Z,25.90
2023-03-21T04:26:09.671Z,29.03
2023-03-21T04:28:37.251Z,30.60
2023-03-21T04:31:22.663Z,31.93
2023-03-21T04:33:52.112Z,29.77
2023-03-21T04:36:26.296Z,28.90
2023-03-21T04:38:53.477Z,29.83
2023-03-21T04:41:20.611Z,30.60
2023-03-21T04:43:48.351Z,36.93
2023-03-21T04:46:15.623Z,31.70
2023-03-21T04:48:42.771Z,26.83
2023-03-21T04:51:09.830Z,25.83
2023-03-21T04:53:38.605Z,27.50
2023-03-21T04:56:06.649Z,30.57
2023-03-21T04:58:33.988Z,24.93
2023-03-21T05:01:02.449Z,26.93
2023-03-21T05:03:35.386Z,33.20
2023-03-21T05:06:03.069Z,24.77
2023-03-21T05:08:30.169Z,32.50
2023-03-21T05:10:57.178Z,27.20
2023-03-21T05:13:24.229Z,27.50
2023-03-21T05:15:51.496Z,27.20
2023-03-21T05:18:24.843Z,26.13
2023-03-21T05:20:55.601Z,23.57
2023-03-21T05:23:23.213Z,26.47
2023-03-21T05:25:50.374Z,26.80
2023-03-21T05:28:20.509Z,30.90
2023-03-21T05:30:47.586Z,33.23
2023-03-21T05:33:14.910Z,29.70
2023-03-21T05:35:42.060Z,24.20
2023-03-21T05:38:09.285Z,25.87
2023-03-21T05:40:36.510Z,27.57
2023-03-21T05:43:03.610Z,25.73
2023-03-21T05:45:30.841Z,26.60
2023-03-21T05:47:57.925Z,26.10
2023-03-21T05:50:25.371Z,24.77
2023-03-21T05:52:52.398Z,25.53
2023-03-21T05:55:19.537Z,27.67
2023-03-21T05:57:46.586Z,27.50
2023-03-21T06:00:13.962Z,23.67
2023-03-21T06:02:41.056Z,26.40
2023-03-21T06:05:08.535Z,21.00
2023-03-21T06:07:36.983Z,24.43
2023-03-21T06:10:04.849Z,25.97
2023-03-21T06:12:32.088Z,22.40
2023-03-21T06:14:59.513Z,29.50
2023-03-21T06:17:26.536Z,24.20
2023-03-21T06:19:53.728Z,23.67
2023-03-21T06:22:20.775Z,26.67
2023-03-21T06:24:48.263Z,25.40
2023-03-21T06:27:15.520Z,26.07
2023-03-21T06:29:42.557Z,23.13
2023-03-21T06:32:09.888Z,24.87
2023-03-21T06:34:39.394Z,24.67
2023-03-21T06:37:06.533Z,21.40
2023-03-21T06:39:33.763Z,20.13
2023-03-21T06:42:00.947Z,23.63
2023-03-21T06:44:28.386Z,21.00
2023-03-21T06:46:55.510Z,24.77
2023-03-21T06:49:22.619Z,19.43
2023-03-21T06:51:49.689Z,20.67
2023-03-21T06:54:17.918Z,23.93
2023-03-21T06:56:45.353Z,23.23
2023-03-21T06:59:12.438Z,25.97
2023-03-21T07:01:39.828Z,21.27
2023-03-21T07:04:07.387Z,25.17
2023-03-21T07:06:34.444Z,20.73
2023-03-21T07:09:02.391Z,23.87
2023-03-21T07:11:30.029Z,24.73
2023-03-21T07:13:57.101Z,21.33
2023-03-21T07:16:24.936Z,24.07
2023-03-21T07:18:52.115Z,21.77
2023-03-21T07:21:19.469Z,20.17
2023-03-21T07:23:47.011Z,22.67
2023-03-21T07:26:16.055Z,21.03
2023-03-21T07:28:43.191Z,20.30
2023-03-21T07:31:14.258Z,20.67
2023-03-21T07:33:41.334Z,18.50
2023-03-21T07:36:12.569Z,26.17
2023-03-21T07:38:41.021Z,21.20
2023-03-21T07:41:08.185Z,22.57
2023-03-21T07:43:36.431Z,23.00
2023-03-21T07:46:05.739Z,22.93
2023-03-21T07:48:33.257Z,20.47
2023-03-21T07:51:02.144Z,21.93
2023-03-21T07:53:29.164Z,22.40
2023-03-21T07:55:56.545Z,19.87
2023-03-21T07:58:24.504Z,19.13
2023-03-21T08:00:53.429Z,24.13
2023-03-21T08:03:21.187Z,22.83
2023-03-21T08:05:48.287Z,24.60
2023-03-21T08:08:15.551Z,24.37
2023-03-21T08:10:45.538Z,26.80
2023-03-21T08:13:13.200Z,24.20
2023-03-21T08:15:42.141Z,21.93
2023-03-21T08:18:10.063Z,23.07
2023-03-21T08:20:37.148Z,21.87
2023-03-21T08:23:04.272Z,21.73
2023-03-21T08:25:31.374Z,22.90
2023-03-21T08:27:58.424Z,25.33
2023-03-21T08:30:27.249Z,24.30
2023-03-21T08:33:00.901Z,20.30
2023-03-21T08:35:28.767Z,23.27
2023-03-21T08:37:55.818Z,22.10
2023-03-21T08:40:22.858Z,23.83
2023-03-21T08:42:49.952Z,23.20
2023-03-21T08:45:18.252Z,23.43
2023-03-21T08:47:45.682Z,21.80
2023-03-21T08:50:14.543Z,23.60
2023-03-21T08:52:41.989Z,22.87
2023-03-21T08:55:09.581Z,19.20
2023-03-21T08:57:36.777Z,19.23
2023-03-21T09:00:09.757Z,22.27
2023-03-21T09:02:36.850Z,22.87
2023-03-21T09:05:05.866Z,17.47
2023-03-21T09:07:34.635Z,19.97
2023-03-21T09:10:22.717Z,16.13
2023-03-21T09:12:49.564Z,17.27
2023-03-21T09:15:17.852Z,17.90
2023-03-21T09:17:49.985Z,16.47
2023-03-21T09:20:20.851Z,23.50
2023-03-21T09:22:48.515Z,21.03
2023-03-21T09:25:16.470Z,16.90
2023-03-21T09:27:45.832Z,17.10
2023-03-21T09:30:17.538Z,18.67
2023-03-21T09:32:48.432Z,21.30
2023-03-21T09:35:18.550Z,14.23
2023-03-21T09:37:47.215Z,25.87
2023-03-21T09:40:34.163Z,21.30
2023-03-21T09:43:08.783Z,18.87
2023-03-21T09:45:38.505Z,17.70
2023-03-21T09:48:07.652Z,20.97
2023-03-21T09:50:38.978Z,19.73
2023-03-21T09:53:15.061Z,21.63
2023-03-21T09:55:42.547Z,17.43
2023-03-21T09:58:28.992Z,15.00
2023-03-21T10:01:08.742Z,22.17
2023-03-21T10:03:36.215Z,17.13
2023-03-21T10:06:12.286Z,18.73
2023-03-21T10:08:43.692Z,30.40
2023-03-21T10:11:13.923Z,22.20
2023-03-21T10:13:43.844Z,19.23
2023-03-21T10:16:16.065Z,14.63
2023-03-21T10:18:44.987Z,17.50
2023-03-21T10:21:43.138Z,14.47
2023-03-21T10:24:06.349Z,15.23
2023-03-21T10:26:33.419Z,16.87
2023-03-21T10:29:02.759Z,16.83
2023-03-21T10:31:30.344Z,15.63
2023-03-21T10:33:59.927Z,17.90
2023-03-21T10:36:28.091Z,18.93
2023-03-21T10:39:04.619Z,18.60
2023-03-21T10:41:32.249Z,13.13
2023-03-21T10:44:14.581Z,13.57
2023-03-21T10:46:55.097Z,19.30
2023-03-21T10:49:22.860Z,15.83
2023-03-21T10:51:52.325Z,16.17
2023-03-21T10:54:23.588Z,16.77
2023-03-21T10:57:19.898Z,14.43
2023-03-21T10:59:56.670Z,16.53
2023-03-21T11:02:50.002Z,14.50
2023-03-21T11:05:25.893Z,12.37
2023-03-21T11:08:19.057Z,17.17
2023-03-21T11:10:51.777Z,11.83
2023-03-21T11:13:20.469Z,19.30
2023-03-21T11:15:54.020Z,22.73
2023-03-21T11:18:22.971Z,19.07
2023-03-21T11:20:51.646Z,14.13
2023-03-21T11:23:20.764Z,10.37
2023-03-21T11:25:51.314Z,16.17
2023-03-21T11:28:25.759Z,14.73
2023-03-21T11:30:57.372Z,16.57
2023-03-21T11:33:27.892Z,15.90
2023-03-21T11:35:59.190Z,14.80
2023-03-21T11:38:28.232Z,12.13
2023-03-21T11:40:57.788Z,20.53
2023-03-21T11:43:34.138Z,15.43
2023-03-21T11:46:07.724Z,19.57
2023-03-21T11:48:37.967Z,12.37
2023-03-21T11:51:07.115Z,16.97
2023-03-21T11:53:39.390Z,12.30
2023-03-21T11:56:06.527Z,13.50
2023-03-21T11:58:36.760Z,21.40
2023-03-21T12:01:17.517Z,17.13
2023-03-21T12:03:48.307Z,16.30
2023-03-21T12:06:28.661Z,14.23
2023-03-21T12:08:58.765Z,16.67
2023-03-21T12:11:26.009Z,16.00
2023-03-21T12:14:07.194Z,20.10
2023-03-21T12:16:43.340Z,18.43
2023-03-21T12:19:10.407Z,12.07
2023-03-21T12:21:45.916Z,15.53
2023-03-21T12:24:12.933Z,20.80
2023-03-21T12:26:46.389Z,13.63
2023-03-21T12:29:16.196Z,17.13
2023-03-21T12:31:43.311Z,14.50
2023-03-21T12:34:19.412Z,12.57
2023-03-21T12:37:04.866Z,21.70
2023-03-21T12:39:36.379Z,214.53
2023-03-21T12:42:14.189Z,596.17
2023-03-21T12:44:46.505Z,445.63
2023-03-21T12:47:25.088Z,363.23
2023-03-21T12:50:01.608Z,132.37
2023-03-21T12:52:34.903Z,23.67
2023-03-21T12:55:04.378Z,16.60
2023-03-21T12:57:33.119Z,12.30
2023-03-21T13:00:32.772Z,13.77
2023-03-21T13:03:05.580Z,12.93
2023-03-21T13:05:36.990Z,195.43
2023-03-21T13:08:16.429Z,404.27
2023-03-21T13:10:44.996Z,33.57
2023-03-21T13:13:19.580Z,11.67
2023-03-21T13:15:56.472Z,23.80
2023-03-21T13:18:29.305Z,9.70
2023-03-21T13:21:00.918Z,9.57
2023-03-21T13:23:34.520Z,8.27
2023-03-21T13:26:01.656Z,8.77
2023-03-21T13:28:30.411Z,11.23
2023-03-21T13:31:18.235Z,12.67
2023-03-21T13:33:52.327Z,19.73
2023-03-21T13:36:24.241Z,9.20
2023-03-21T13:38:52.591Z,11.23
2023-03-21T13:41:21.503Z,13.30
2023-03-21T13:44:03.903Z,7.97
2023-03-21T13:46:35.967Z,12.40
2023-03-21T13:49:10.608Z,14.03
2023-03-21T13:51:37.740Z,10.70
2023-03-21T13:54:07.534Z,6.77
2023-03-21T13:56:46.947Z,8.23
2023-03-21T13:59:17.720Z,8.37
2023-03-21T14:02:01.315Z,10.03
2023-03-21T14:04:41.994Z,8.23
2023-03-21T14:07:32.990Z,6.23
2023-03-21T14:10:06.196Z,7.77
2023-03-21T14:12:41.871Z,7.93
2023-03-21T14:15:27.550Z,10.13
2023-03-21T14:17:56.080Z,8.70
2023-03-21T14:20:33.370Z,7.00
2023-03-21T14:23:00.884Z,7.30
2023-03-21T14:25:37.175Z,8.83
2023-03-21T14:28:13.478Z,9.97
2023-03-21T14:30:42.450Z,12.83
2023-03-21T14:33:19.516Z,10.60
2023-03-21T14:35:47.800Z,6.87
2023-03-21T14:38:25.447Z,11.83
2023-03-21T14:40:58.263Z,6.60
2023-03-21T14:43:26.155Z,7.87
2023-03-21T14:45:56.748Z,5.60
2023-03-21T14:48:33.027Z,7.47
2023-03-21T14:51:05.351Z,10.77
2023-03-21T14:53:33.857Z,6.57
2023-03-21T14:56:02.743Z,4.40
2023-03-21T14:58:31.132Z,6.83
2023-03-21T15:01:01.573Z,6.93
2023-03-21T15:03:29.030Z,4.93
2023-03-21T15:05:56.733Z,8.33
2023-03-21T15:08:25.921Z,5.27
2023-03-21T15:11:08.419Z,6.30
2023-03-21T15:13:55.987Z,5.40
2023-03-21T15:16:23.591Z,7.43
2023-03-21T15:18:51.001Z,5.83
2023-03-21T15:21:23.358Z,6.77
2023-03-21T15:23:54.640Z,8.33
2023-03-21T15:26:22.955Z,4.73
2023-03-21T15:28:51.462Z,6.00
2023-03-21T15:31:20.345Z,6.60
2023-03-21T15:33:51.079Z,7.50
2023-03-21T15:36:27.082Z,7.10
2023-03-21T15:38:54.823Z,5.67
2023-03-21T15:41:21.870Z,4.67
2023-03-21T15:43:49.737Z,6.80
2023-03-21T15:46:18.034Z,5.30
2023-03-21T15:48:45.801Z,5.17
2023-03-21T15:51:21.127Z,6.63
2023-03-21T15:53:48.855Z,6.07
2023-03-21T15:56:16.091Z,8.53
2023-03-21T15:58:45.054Z,7.47
2023-03-21T16:01:17.253Z,8.70
2023-03-21T16:03:46.678Z,5.80
2023-03-21T16:06:16.690Z,9.97
2023-03-21T16:08:46.205Z,5.97
2023-03-21T16:11:16.623Z,4.63
2023-03-21T16:13:43.843Z,6.90
2023-03-21T16:16:18.247Z,8.07
2023-03-21T16:18:45.883Z,7.37
2023-03-21T16:21:14.636Z,4.97
2023-03-21T16:23:42.142Z,5.97
2023-03-21T16:26:13.924Z,10.57
2023-03-21T16:28:41.229Z,5.40
2023-03-21T16:31:12.594Z,4.47
2023-03-21T16:33:39.785Z,7.03
2023-03-21T16:36:07.535Z,7.97
2023-03-21T16:38:34.704Z,6.77
2023-03-21T16:41:04.271Z,15.60
2023-03-21T16:43:31.467Z,5.47
2023-03-21T16:45:58.553Z,14.83
2023-03-21T16:48:25.693Z,7.20
2023-03-21T16:50:52.862Z,6.10
2023-03-21T16:53:19.921Z,8.30
2023-03-21T16:55:46.983Z,15.83
2023-03-21T16:58:16.483Z,16.83
2023-03-21T17:00:43.560Z,6.93
2023-03-21T17:03:21.502Z,8.17
2023-03-21T17:05:48.767Z,10.63
2023-03-21T17:08:17.440Z,7.13
2023-03-21T17:10:44.584Z,7.10
2023-03-21T17:13:11.813Z,9.10
2023-03-21T17:15:39.521Z,11.77
2023-03-21T17:18:06.644Z,6.80
2023-03-21T17:20:34.699Z,6.80
2023-03-21T17:23:02.276Z,13.23
2023-03-21T17:25:29.478Z,10.07
2023-03-21T17:27:56.575Z,9.07
2023-03-21T17:30:25.530Z,10.03
2023-03-21T17:32:54.618Z,9.10
2023-03-21T17:35:22.623Z,8.03
2023-03-21T17:37:53.112Z,8.27
2023-03-21T17:40:25.075Z,11.93
2023-03-21T17:42:53.082Z,8.83
2023-03-21T17:45:20.570Z,7.60
2023-03-21T17:47:47.673Z,7.17
2023-03-21T17:50:16.753Z,6.20
2023-03-21T17:52:44.016Z,7.80
2023-03-21T17:55:11.340Z,7.47
2023-03-21T17:57:38.404Z,9.27
2023-03-21T18:00:12.092Z,9.67
2023-03-21T18:02:40.027Z,12.17
2023-03-21T18:05:08.463Z,10.87
2023-03-21T18:08:08.144Z,7.43
2023-03-21T18:10:25.205Z,7.57
2023-03-21T18:12:54.932Z,6.60
2023-03-21T18:15:23.677Z,7.73
2023-03-21T18:17:50.995Z,9.50
2023-03-21T18:20:21.563Z,10.50
2023-03-21T18:22:48.785Z,8.13
2023-03-21T18:25:16.909Z,9.47
2023-03-21T18:28:06.939Z,8.30
2023-03-21T18:30:50.365Z,9.47
2023-03-21T18:33:18.757Z,11.73
2023-03-21T18:35:46.759Z,8.30
2023-03-21T18:38:13.949Z,6.27
2023-03-21T18:40:41.290Z,6.73
2023-03-21T18:43:56.027Z,10.40
2023-03-21T18:45:55.925Z,7.87
2023-03-21T18:48:23.019Z,10.93
2023-03-21T18:50:50.174Z,8.77
2023-03-21T18:53:17.416Z,10.30
2023-03-21T18:55:47.635Z,7.93
2023-03-21T18:58:16.966Z,9.77
2023-03-21T19:00:44.884Z,10.23
2023-03-21T19:03:24.898Z,6.63
2023-03-21T19:06:00.530Z,13.40
2023-03-21T19:08:27.775Z,8.90
2023-03-21T19:10:59.568Z,7.60
2023-03-21T19:13:28.543Z,8.77
2023-03-21T19:15:56.280Z,8.07
2023-03-21T19:18:41.601Z,10.37
2023-03-21T19:21:10.961Z,12.17
2023-03-21T19:24:11.762Z,9.77
2023-03-21T19:26:25.912Z,10.90
2023-03-21T19:28:53.113Z,8.63
2023-03-21T19:31:21.286Z,8.80
2023-03-21T19:33:50.008Z,7.30
2023-03-21T19:36:22.152Z,8.13
2023-03-21T19:38:49.726Z,7.87
2023-03-21T19:41:16.801Z,7.77
2023-03-21T19:43:53.745Z,9.13
2023-03-21T19:46:24.558Z,8.87
2023-03-21T19:48:56.165Z,11.70
2023-03-21T19:51:30.046Z,9.57
2023-03-21T19:53:58.528Z,9.43
2023-03-21T19:56:27.683Z,9.90
2023-03-21T19:58:57.769Z,10.33
2023-03-21T20:01:25.517Z,8.10
2023-03-21T20:03:52.731Z,9.57
2023-03-21T20:06:22.140Z,11.57
2023-03-21T20:11:36.345Z,11.87
2023-03-21T20:14:03.528Z,13.27
2023-03-21T20:16:34.987Z,8.63
2023-03-21T20:19:03.183Z,9.17
2023-03-21T20:21:41.039Z,10.63
2023-03-21T20:24:13.799Z,8.73
2023-03-21T20:26:40.893Z,10.00
2023-03-21T20:29:54.940Z,9.97
2023-03-21T20:31:55.586Z,9.57
2023-03-21T20:34:22.893Z,8.20
2023-03-21T20:36:50.283Z,9.73
2023-03-21T20:39:18.428Z,10.43
2023-03-21T20:41:45.563Z,11.10
2023-03-21T20:44:42.193Z,11.47
2023-03-21T20:47:00.642Z,13.60
2023-03-21T20:49:28.434Z,9.43
2023-03-21T20:54:44.080Z,8.10
2023-03-21T20:57:11.246Z,11.23
2023-03-21T20:59:38.459Z,10.83
2023-03-21T21:02:05.554Z,10.40
2023-03-21T21:05:12.265Z,13.60
2023-03-21T21:07:21.783Z,10.20
2023-03-21T21:09:49.301Z,11.10
2023-03-21T21:12:19.375Z,12.60
2023-03-21T21:14:47.751Z,10.23
2023-03-21T21:17:31.103Z,8.60
2023-03-21T21:20:02.525Z,8.87
2023-03-21T21:22:29.628Z,8.17
2023-03-21T21:24:57.304Z,12.10
2023-03-21T21:27:25.024Z,9.30
2023-03-21T21:29:52.302Z,10.07
2023-03-21T21:32:19.612Z,9.40
2023-03-21T21:34:47.732Z,10.33
2023-03-21T21:37:15.372Z,8.23
2023-03-21T21:39:42.683Z,7.90
2023-03-21T21:42:09.839Z,7.90
2023-03-21T21:44:37.523Z,9.07
2023-03-21T21:47:08.700Z,12.57
2023-03-21T21:49:35.925Z,10.80
2023-03-21T21:52:05.923Z,10.67
2023-03-21T21:54:36.095Z,10.77
2023-03-21T21:57:03.407Z,9.67
2023-03-21T21:59:30.503Z,9.90
2023-03-21T22:01:58.506Z,8.47
2023-03-21T22:04:27.861Z,10.57
2023-03-21T22:06:55.486Z,8.33
2023-03-21T22:09:22.714Z,11.60
2023-03-21T22:11:50.507Z,9.67
2023-03-21T22:14:17.732Z,7.53
2023-03-21T22:16:46.726Z,8.87
2023-03-21T22:19:13.810Z,9.43
2023-03-21T22:21:41.154Z,7.67
2023-03-21T22:24:08.292Z,11.13
2023-03-21T22:26:35.467Z,9.40
2023-03-21T22:29:02.602Z,8.93
2023-03-21T22:31:29.809Z,9.43
2023-03-21T22:33:56.893Z,11.97
2023-03-21T22:39:06.551Z,9.10
2023-03-21T22:41:33.612Z,11.03
2023-03-21T22:44:00.691Z,8.70
2023-03-21T22:46:27.795Z,10.50
2023-03-21T22:48:54.891Z,10.47
2023-03-21T22:51:21.920Z,8.80
2023-03-21T22:53:48.959Z,10.00
2023-03-21T22:56:16.002Z,7.60
2023-03-21T22:58:43.075Z,8.77
2023-03-21T23:01:10.139Z,9.83
2023-03-21T23:03:39.021Z,7.97
2023-03-21T23:06:06.410Z,9.03
2023-03-21T23:08:33.625Z,9.27
2023-03-21T23:11:05.845Z,8.33
2023-03-21T23:13:33.011Z,8.57
2023-03-21T23:16:06.649Z,12.10
2023-03-21T23:18:33.956Z,7.57
2023-03-21T23:21:01.301Z,7.97
2023-03-21T23:23:29.693Z,11.53
2023-03-21T23:25:57.526Z,8.90
2023-03-21T23:28:24.554Z,7.33
2023-03-21T23:30:51.637Z,8.93
2023-03-21T23:33:18.731Z,7.73
2023-03-21T23:35:46.170Z,8.67
2023-03-21T23:38:13.248Z,10.27
2023-03-21T23:40:41.009Z,9.33
2023-03-21T23:43:08.357Z,9.67
2023-03-21T23:45:36.674Z,6.33
2023-03-21T23:48:03.740Z,7.07
2023-03-21T23:50:30.879Z,6.40
2023-03-21T23:52:57.962Z,9.27
2023-03-21T23:55:25.000Z,9.20
2023-03-21T23:57:58.795Z,8.53
